Time;durP1;ratioP1;P1;durP2;ratioP2;P2;SDS_P1;SDS_P2;PMS_P1;PMS_P2;Temp;Humidity;BMP_temperature;BMP_pressure;BME280_temperature;BME280_humidity;BME280_pressure;Samples;Min_cycle;Max_cycle;Signal;HPM_P1;HPM_P2
2022/07/27 00:02:00;;;;;;;12.38;8.48;;;;;;;26.27;100.00;99402.19;5110519;28;20719;-73
2022/07/27 00:04:27;;;;;;;16.67;8.43;;;;;;;26.12;100.00;99401.28;5130270;27;20301;-73
2022/07/27 00:06:54;;;;;;;10.50;8.35;;;;;;;26.01;100.00;99390.44;5121459;27;20195;-73
2022/07/27 00:09:21;;;;;;;10.10;7.85;;;;;;;26.14;100.00;99399.41;5175131;27;20255;-73
2022/07/27 00:11:48;;;;;;;12.23;9.50;;;;;;;25.99;100.00;99391.47;5175049;27;20206;-74
2022/07/27 00:14:15;;;;;;;12.02;8.88;;;;;;;26.02;100.00;99397.47;5174760;27;20210;-74
2022/07/27 00:16:42;;;;;;;9.07;8.18;;;;;;;26.25;100.00;99411.22;5174492;27;20195;-73
2022/07/27 00:19:10;;;;;;;15.18;9.55;;;;;;;26.22;100.00;99411.41;5174058;27;20206;-73
2022/07/27 00:21:37;;;;;;;10.00;9.00;;;;;;;26.12;100.00;99408.38;5168001;27;20203;-73
2022/07/27 00:24:04;;;;;;;9.95;8.43;;;;;;;26.00;98.28;99393.19;5154289;27;20203;-73
2022/07/27 00:26:31;;;;;;;10.57;8.35;;;;;;;26.23;98.65;99418.41;5148685;27;20199;-74
2022/07/27 00:28:58;;;;;;;10.07;8.60;;;;;;;26.11;100.00;99414.66;5174956;27;20651;-74
2022/07/27 00:31:25;;;;;;;10.23;8.35;;;;;;;26.04;100.00;99405.34;5173678;27;20215;-74
2022/07/27 00:33:51;;;;;;;10.50;8.60;;;;;;;25.99;100.00;99389.69;5174634;27;20195;-73
2022/07/27 00:36:20;;;;;;;11.25;8.95;;;;;;;26.09;97.86;99406.78;5174490;27;20677;-74
2022/07/27 00:38:47;;;;;;;12.27;8.73;;;;;;;26.01;99.87;99414.34;5174461;27;20195;-74
2022/07/27 00:41:14;;;;;;;9.25;7.85;;;;;;;25.03;100.00;99256.34;5174476;27;20206;-73
2022/07/27 00:43:52;;;;;;;12.48;8.30;;;;;;;26.14;99.14;99418.00;5120206;27;20183;-73
2022/07/27 00:46:19;;;;;;;14.45;7.70;;;;;;;25.87;99.42;99427.56;5174020;27;20187;-74
2022/07/27 00:48:46;;;;;;;9.38;7.75;;;;;;;25.90;97.38;99438.00;5174321;27;20205;-74
2022/07/27 00:51:14;;;;;;;10.70;7.38;;;;;;;25.84;94.57;99401.19;5174073;27;20234;-74
2022/07/27 00:53:42;;;;;;;9.60;7.18;;;;;;;25.94;93.20;99422.75;5174192;27;20619;-73
2022/07/27 00:56:09;;;;;;;7.85;7.15;;;;;;;25.73;92.17;99395.63;5169603;27;20204;-74
2022/07/27 00:58:38;;;;;;;8.27;7.40;;;;;;;26.19;93.30;99422.19;5173860;27;20188;-73
2022/07/27 01:01:05;;;;;;;7.75;6.93;;;;;;;26.13;90.91;99405.66;5173357;27;20192;-73
2022/07/27 01:03:32;;;;;;;10.32;7.40;;;;;;;26.31;93.61;99421.47;5173620;27;20202;-74
2022/07/27 01:05:59;;;;;;;7.47;6.85;;;;;;;26.42;87.50;99419.03;5174174;27;20230;-74
2022/07/27 01:08:26;;;;;;;7.70;6.90;;;;;;;26.60;84.57;99417.91;5173324;27;20199;-74
2022/07/27 01:10:56;;;;;;;7.18;6.47;;;;;;;26.61;85.55;99415.16;5172970;27;20617;-74
2022/07/27 01:14:19;;;;;;;7.55;6.75;;;;;;;26.74;81.28;99417.06;5173714;27;20577;-73
2022/07/27 01:16:46;;;;;;;7.72;6.95;;;;;;;26.49;78.90;99393.78;5173128;27;20273;-73
2022/07/27 01:19:14;;;;;;;6.80;6.20;;;;;;;26.72;79.15;99405.69;5173503;27;20195;-74
2022/07/27 01:21:42;;;;;;;8.02;6.78;;;;;;;26.67;80.29;99403.28;5173338;27;20203;-74
2022/07/27 01:24:10;;;;;;;9.98;7.45;;;;;;;26.71;78.10;99420.78;5173740;27;20677;-74
2022/07/27 01:26:38;;;;;;;8.43;7.63;;;;;;;26.82;81.07;99423.66;5173488;27;20226;-73
2022/07/27 01:29:05;;;;;;;18.67;8.25;;;;;;;26.69;84.14;99417.34;5172692;27;20199;-74
2022/07/27 01:31:32;;;;;;;9.48;8.32;;;;;;;26.54;86.84;99416.47;5172826;27;20219;-74
2022/07/27 01:34:00;;;;;;;7.95;7.18;;;;;;;26.36;87.66;99424.72;5172980;27;20198;-74
2022/07/27 01:36:27;;;;;;;8.27;7.47;;;;;;;26.15;88.30;99416.19;5152486;27;20202;-74
2022/07/27 01:38:55;;;;;;;12.95;7.18;;;;;;;26.00;91.77;99417.09;5103957;27;20247;-74
2022/07/27 01:41:22;;;;;;;8.50;7.63;;;;;;;25.99;90.25;99423.34;5173532;27;20203;-74
2022/07/27 01:43:49;;;;;;;10.15;7.63;;;;;;;25.85;90.84;99410.88;5172897;27;20682;-74
2022/07/27 01:46:16;;;;;;;9.80;7.50;;;;;;;25.77;93.93;99426.41;5172902;27;20183;-74
2022/07/27 01:48:43;;;;;;;7.82;7.10;;;;;;;25.57;95.65;99405.44;5172601;27;20187;-74
2022/07/27 01:51:10;;;;;;;8.30;7.50;;;;;;;25.76;94.67;99427.34;5173084;27;20219;-73
2022/07/27 01:53:37;;;;;;;10.57;7.85;;;;;;;25.84;92.11;99426.91;5172976;27;20642;-73
2022/07/27 01:56:09;;;;;;;8.48;7.60;;;;;;;25.89;89.90;99431.00;5172983;27;20191;-74
2022/07/27 01:58:37;;;;;;;8.20;7.40;;;;;;;25.74;92.82;99421.25;5172538;27;20195;-73
2022/07/27 02:01:04;;;;;;;10.95;7.40;;;;;;;25.85;83.55;99413.53;5172490;27;20712;-74
2022/07/27 02:03:31;;;;;;;9.18;7.85;;;;;;;25.81;89.21;99406.69;5172559;27;20227;-74
2022/07/27 02:05:58;;;;;;;7.95;7.25;;;;;;;25.84;85.08;99379.06;5172690;27;20252;-74
2022/07/27 02:08:24;;;;;;;11.23;7.50;;;;;;;26.03;84.37;99408.94;5171975;27;20191;-73
2022/07/27 02:13:37;;;;;;;8.65;7.15;;;;;;;26.06;82.34;99412.28;5172984;27;20259;-72
2022/07/27 02:16:04;;;;;;;8.40;7.57;;;;;;;25.80;81.09;99404.97;5172542;27;20202;-73
2022/07/27 02:18:31;;;;;;;8.90;7.30;;;;;;;25.96;79.78;99420.88;5171918;27;20203;-72
2022/07/27 02:20:57;;;;;;;8.55;7.70;;;;;;;25.72;81.14;99427.63;5173686;27;20617;-72
2022/07/27 02:23:24;;;;;;;11.75;8.07;;;;;;;25.81;77.76;99430.59;5177208;27;20206;-74
2022/07/27 02:25:51;;;;;;;12.60;8.43;;;;;;;25.76;81.65;99430.00;5177302;27;20195;-72
2022/07/27 02:28:18;;;;;;;8.65;7.20;;;;;;;25.76;79.22;99427.34;5176897;27;20685;-75
2022/07/27 02:30:46;;;;;;;11.85;8.05;;;;;;;25.76;78.76;99416.72;5122837;27;20211;-73
2022/07/27 02:33:13;;;;;;;9.88;7.75;;;;;;;25.68;79.89;99424.28;5177340;27;20217;-72
2022/07/27 02:35:40;;;;;;;8.55;7.68;;;;;;;25.62;80.91;99433.44;5177031;27;20202;-72
2022/07/27 02:38:07;;;;;;;10.20;8.32;;;;;;;25.38;82.48;99426.81;5140360;27;20195;-73
2022/07/27 02:40:34;;;;;;;15.02;8.85;;;;;;;25.26;83.33;99432.81;5176630;27;20204;-73
2022/07/27 02:43:01;;;;;;;9.75;8.40;;;;;;;25.23;82.41;99434.78;5176185;27;20203;-73
2022/07/27 02:45:28;;;;;;;11.07;8.43;;;;;;;25.01;87.16;99443.91;5139867;27;20214;-73
2022/07/27 02:47:56;;;;;;;9.77;7.72;;;;;;;25.27;89.57;99452.25;5176832;27;20286;-73
2022/07/27 02:50:23;;;;;;;8.35;7.30;;;;;;;25.31;88.25;99445.81;5176082;27;20200;-72
2022/07/27 02:52:50;;;;;;;10.82;7.88;;;;;;;25.30;85.77;99452.06;5176556;27;20286;-73
2022/07/27 02:55:17;;;;;;;10.32;7.40;;;;;;;25.30;86.64;99452.94;5176524;27;20282;-72
2022/07/27 02:57:44;;;;;;;11.80;8.20;;;;;;;25.29;86.73;99461.00;5122301;27;20218;-72
2022/07/27 03:00:14;;;;;;;10.90;8.85;;;;;;;25.37;86.44;99448.13;5176514;27;20712;-72
2022/07/27 03:02:41;;;;;;;9.95;8.07;;;;;;;25.31;88.24;99448.47;5176184;27;20255;-72
2022/07/27 03:05:11;;;;;;;8.40;7.70;;;;;;;25.40;83.98;99455.97;5176584;27;20706;-73
2022/07/27 03:07:38;;;;;;;9.35;8.43;;;;;;;25.46;83.77;99452.94;5139861;27;20666;-73
2022/07/27 03:10:06;;;;;;;10.95;8.38;;;;;;;25.43;84.73;99443.38;5176008;27;20536;-73
2022/07/27 03:12:33;;;;;;;8.45;7.63;;;;;;;25.52;86.05;99455.28;5123011;27;20219;-73
2022/07/27 03:14:59;;;;;;;9.25;8.18;;;;;;;25.47;84.42;99462.63;5175406;27;20199;-73
2022/07/27 03:17:26;;;;;;;11.90;8.60;;;;;;;25.58;83.76;99453.13;5170055;27;20199;-73
2022/07/27 03:19:53;;;;;;;10.23;9.18;;;;;;;25.60;84.16;99455.72;5176412;27;20262;-73
2022/07/27 03:22:21;;;;;;;10.48;9.48;;;;;;;25.71;81.22;99448.00;5175789;27;20706;-72
2022/07/27 03:24:48;;;;;;;12.13;8.75;;;;;;;25.66;82.92;99460.66;5176134;27;20214;-73
2022/07/27 03:27:15;;;;;;;10.27;8.15;;;;;;;25.74;82.36;99463.75;5175663;27;20191;-73
2022/07/27 03:29:42;;;;;;;10.23;8.25;;;;;;;25.82;82.31;99472.16;5175807;27;20203;-73
2022/07/27 03:32:09;;;;;;;11.52;8.60;;;;;;;25.78;86.02;99481.25;5175515;27;20203;-73
2022/07/27 03:34:35;;;;;;;15.90;8.85;;;;;;;25.80;87.02;99473.16;5175226;27;20214;-73
2022/07/27 03:37:02;;;;;;;9.20;8.27;;;;;;;25.75;91.64;99467.28;5174983;27;20199;-73
2022/07/27 03:52:57;;;;;;;9.18;8.20;;;;;;;27.42;79.52;99466.00;5154506;27;20270;-75
2022/07/27 03:55:24;;;;;;;15.65;8.70;;;;;;;27.55;77.78;99467.81;5172530;27;20194;-73
2022/07/27 03:57:52;;;;;;;12.15;9.10;;;;;;;27.82;75.66;99459.84;5174901;27;20203;-75
2022/07/27 04:00:19;;;;;;;27.25;9.23;;;;;;;28.11;73.75;99481.09;5166734;27;20236;-75
2022/07/27 04:02:46;;;;;;;19.45;8.70;;;;;;;28.52;73.08;99471.16;5164883;27;20199;-74
2022/07/27 04:05:13;;;;;;;12.63;9.00;;;;;;;29.33;68.81;99495.75;5162554;27;20219;-75
2022/07/27 04:07:40;;;;;;;10.43;8.93;;;;;;;29.67;69.43;99512.91;5154133;27;20864;-74
2022/07/27 04:10:10;;;;;;;9.65;8.57;;;;;;;29.63;71.06;99504.25;5172785;27;20197;-75
2022/07/27 04:12:37;;;;;;;11.85;8.57;;;;;;;29.87;70.29;99517.66;5173548;27;20206;-73
2022/07/27 04:15:04;;;;;;;12.98;8.35;;;;;;;30.31;66.51;99517.06;5173334;27;20199;-75
2022/07/27 04:17:31;;;;;;;11.13;8.70;;;;;;;30.70;62.39;99506.03;5173152;27;20201;-71
2022/07/27 04:19:58;;;;;;;10.63;8.93;;;;;;;31.24;60.70;99519.66;5173598;27;20198;-74
2022/07/27 04:22:25;;;;;;;10.05;8.25;;;;;;;31.60;57.88;99521.25;5171099;27;20207;-72
2022/07/27 04:24:52;;;;;;;11.82;8.93;;;;;;;32.00;53.99;99526.88;5172180;27;20209;-73
2022/07/27 04:27:20;;;;;;;15.07;8.75;;;;;;;32.27;54.46;99521.13;5173959;27;20210;-73
2022/07/27 04:29:47;;;;;;;12.50;8.38;;;;;;;32.52;53.49;99536.88;5174003;27;20646;-73
2022/07/27 04:32:14;;;;;;;11.38;8.43;;;;;;;32.67;51.36;99532.06;5174320;27;20218;-73
2022/07/27 04:34:41;;;;;;;11.52;9.13;;;;;;;32.34;50.81;99472.16;5174671;27;20587;-74
2022/07/27 04:37:07;;;;;;;16.77;8.88;;;;;;;32.48;50.55;99530.03;5174253;27;20201;-72
2022/07/27 04:39:34;;;;;;;13.70;9.07;;;;;;;32.97;49.42;99539.31;5174406;27;20199;-73
2022/07/27 04:42:01;;;;;;;12.35;8.40;;;;;;;32.96;47.94;99535.81;5173884;27;20198;-74
2022/07/27 04:44:29;;;;;;;10.65;7.03;;;;;;;32.91;46.03;99548.78;5173100;27;20206;-73
2022/07/27 04:46:56;;;;;;;9.65;6.90;;;;;;;32.73;43.17;99550.34;5174091;27;20191;-72
2022/07/27 04:49:23;;;;;;;14.45;7.63;;;;;;;31.98;42.19;99547.63;5136986;27;20183;-73
2022/07/27 04:51:51;;;;;;;9.40;7.28;;;;;;;31.87;43.08;99529.72;5174113;27;20230;-73
2022/07/27 04:54:17;;;;;;;7.63;6.93;;;;;;;32.40;43.07;99548.63;5173630;27;20558;-73
2022/07/27 04:56:44;;;;;;;8.85;6.70;;;;;;;32.65;42.21;99553.66;5173442;27;20206;-73
2022/07/27 04:59:11;;;;;;;7.55;6.85;;;;;;;32.89;39.99;99556.94;5119551;27;20203;-72
2022/07/27 05:01:39;;;;;;;7.57;6.63;;;;;;;32.18;40.49;99548.69;5173674;27;20208;-72
2022/07/27 05:04:06;;;;;;;7.28;6.68;;;;;;;32.01;40.46;99555.41;5130016;27;20269;-72
2022/07/27 05:06:33;;;;;;;10.48;6.68;;;;;;;32.60;40.13;99561.28;5120646;27;20687;-72
2022/07/27 05:09:00;;;;;;;8.20;7.00;;;;;;;31.31;41.13;99534.25;5109930;27;20697;-73
2022/07/27 05:11:27;;;;;;;9.85;7.25;;;;;;;31.23;42.03;99565.31;5091193;27;20260;-71
2022/07/27 05:13:54;;;;;;;9.80;7.38;;;;;;;31.05;42.46;99558.69;5130988;27;20241;-71
2022/07/27 05:16:21;;;;;;;9.48;6.40;;;;;;;31.54;42.29;99553.88;5129655;27;20963;-71
2022/07/27 05:18:49;;;;;;;8.50;7.07;;;;;;;32.41;39.99;99566.44;5129770;27;20196;-71
2022/07/27 05:21:16;;;;;;;7.75;6.93;;;;;;;32.21;40.73;99569.94;5128938;27;20184;-71
2022/07/27 05:23:42;;;;;;;7.80;7.10;;;;;;;32.66;39.99;99571.50;5130084;27;20622;-71
2022/07/27 05:26:09;;;;;;;6.78;6.20;;;;;;;32.80;39.85;99573.88;5130506;27;20208;-71
2022/07/27 05:28:36;;;;;;;7.35;6.75;;;;;;;33.60;38.46;99563.31;5130517;27;20248;-72
2022/07/27 05:31:03;;;;;;;11.07;7.30;;;;;;;32.31;39.94;99571.72;5131632;27;20219;-73
2022/07/27 05:33:30;;;;;;;8.30;6.78;;;;;;;31.36;41.70;99582.13;5131365;27;20188;-71
2022/07/27 05:35:58;;;;;;;7.80;6.90;;;;;;;31.31;42.67;99584.31;5130036;27;20796;-71
2022/07/27 05:38:25;;;;;;;8.77;6.72;;;;;;;31.27;42.73;99582.84;5130741;27;20195;-71
2022/07/27 05:40:52;;;;;;;9.63;6.88;;;;;;;31.44;43.12;99574.34;5130656;27;20192;-72
2022/07/27 05:43:18;;;;;;;9.98;7.25;;;;;;;31.04;43.83;99586.47;5130227;27;20203;-71
2022/07/27 05:45:45;;;;;;;8.15;7.28;;;;;;;30.72;44.89;99583.53;5130357;27;20211;-71
2022/07/27 05:48:12;;;;;;;10.60;7.18;;;;;;;31.24;44.41;99575.06;5130716;27;20204;-71
2022/07/27 05:50:39;;;;;;;7.93;7.13;;;;;;;30.10;46.10;99567.66;5130500;27;20192;-70
2022/07/27 05:53:07;;;;;;;10.40;7.20;;;;;;;29.80;47.54;99580.53;5094835;27;20306;-71
2022/07/27 05:55:34;;;;;;;8.25;7.20;;;;;;;29.56;48.22;99569.78;5131084;27;20306;-71
2022/07/27 05:58:01;;;;;;;6.97;6.38;;;;;;;29.51;49.14;99566.56;5131444;27;20199;-70
2022/07/27 06:00:28;;;;;;;8.45;7.18;;;;;;;29.40;49.88;99559.31;5131078;27;20192;-71
2022/07/27 06:02:54;;;;;;;9.82;7.30;;;;;;;29.75;49.52;99578.19;5130435;27;20214;-71
2022/07/27 06:05:21;;;;;;;7.63;6.63;;;;;;;29.75;49.00;99583.53;5161689;27;20223;-71
2022/07/27 06:07:58;;;;;;;8.93;7.35;;;;;;;29.87;49.62;99555.09;5130169;27;20192;-72
2022/07/27 06:10:26;;;;;;;8.38;6.90;;;;;;;30.61;48.54;99583.50;5134418;27;20564;-71
2022/07/27 06:12:53;;;;;;;9.52;7.05;;;;;;;30.08;49.61;99576.72;5149387;27;20738;-73
2022/07/27 06:15:21;;;;;;;8.18;6.70;;;;;;;29.95;50.43;99582.13;5148975;27;20210;-70
2022/07/27 06:17:51;;;;;;;10.43;6.63;;;;;;;30.39;50.17;99578.88;5149967;27;20219;-70
2022/07/27 06:20:19;;;;;;;11.43;7.15;;;;;;;30.53;49.54;99597.47;5150161;27;20307;-70
2022/07/27 06:22:48;;;;;;;11.15;6.75;;;;;;;30.75;49.75;99592.19;5150482;27;20192;-71
2022/07/27 06:25:15;;;;;;;8.38;6.85;;;;;;;30.40;50.81;99586.78;5096392;27;20657;-70
2022/07/27 06:27:44;;;;;;;10.18;7.35;;;;;;;30.28;50.45;99576.13;5151302;27;20598;-71
2022/07/27 06:30:12;;;;;;;9.70;7.18;;;;;;;30.33;51.08;99595.34;5151643;27;20199;-71
2022/07/27 06:32:39;;;;;;;15.70;6.85;;;;;;;29.99;52.19;99591.66;5151154;27;20211;-70
2022/07/27 06:35:08;;;;;;;12.75;7.40;;;;;;;30.15;52.66;99586.00;5151793;27;20205;-72
2022/07/27 06:37:35;;;;;;;12.45;7.35;;;;;;;30.54;51.71;99593.78;5114926;27;20244;-71
2022/07/27 06:40:02;;;;;;;31.08;19.60;;;;;;;30.33;51.62;99587.34;5151945;27;20235;-73
2022/07/27 06:42:29;;;;;;;14.55;9.40;;;;;;;30.50;50.86;99603.03;5150826;27;20678;-71
2022/07/27 06:44:57;;;;;;;10.00;6.72;;;;;;;30.41;52.25;99588.53;5144277;27;20197;-72
2022/07/27 06:47:24;;;;;;;9.70;7.20;;;;;;;30.25;52.64;99587.06;5130017;27;20200;-71
2022/07/27 06:49:51;;;;;;;11.73;6.70;;;;;;;30.39;52.93;99587.72;5146429;27;20214;-72
2022/07/27 06:52:18;;;;;;;12.45;7.30;;;;;;;30.40;52.29;99581.41;5151074;27;20223;-72
2022/07/27 06:54:45;;;;;;;11.38;7.72;;;;;;;30.43;52.25;99564.31;5151237;27;20592;-73
2022/07/27 06:57:12;;;;;;;9.85;7.18;;;;;;;30.61;52.80;99581.66;5151616;27;20195;-73
2022/07/27 06:59:39;;;;;;;8.63;7.25;;;;;;;30.41;53.93;99572.47;5151231;27;20227;-73
2022/07/27 07:02:08;;;;;;;13.40;7.05;;;;;;;30.66;52.62;99592.88;5146813;27;20207;-72
2022/07/27 07:04:35;;;;;;;12.05;7.13;;;;;;;30.75;52.30;99567.25;5143280;27;20223;-72
2022/07/27 07:07:02;;;;;;;10.32;7.45;;;;;;;30.95;52.86;99564.75;5146078;27;20575;-72
2022/07/27 07:09:29;;;;;;;8.15;6.55;;;;;;;31.19;51.91;99587.94;5145485;27;20199;-74
2022/07/27 07:11:57;;;;;;;31.05;20.73;;;;;;;31.34;52.08;99586.75;5154508;27;20219;-73
2022/07/27 07:14:24;;;;;;;12.77;7.65;;;;;;;31.37;50.99;99594.56;5113024;27;20207;-74
2022/07/27 07:16:52;;;;;;;9.38;6.70;;;;;;;31.54;51.52;99587.88;5147757;27;20234;-74
2022/07/27 07:19:20;;;;;;;7.85;6.88;;;;;;;31.37;51.44;99599.91;5112465;27;20208;-76
2022/07/27 07:21:47;;;;;;;9.40;7.22;;;;;;;31.25;49.93;99592.84;5135173;27;20207;-73
2022/07/27 07:24:14;;;;;;;11.70;6.70;;;;;;;31.37;50.79;99595.41;5131157;27;20200;-74
2022/07/27 07:26:41;;;;;;;11.95;6.60;;;;;;;31.50;50.55;99608.69;5134013;27;20195;-72
2022/07/27 07:29:07;;;;;;;13.43;7.60;;;;;;;31.54;52.10;99612.00;5150759;27;20811;-74
2022/07/27 07:31:34;;;;;;;11.00;7.60;;;;;;;31.54;50.86;99604.81;5144288;27;20701;-72
2022/07/27 07:34:01;;;;;;;10.48;6.93;;;;;;;31.35;51.10;99601.88;5148476;27;20210;-73
2022/07/27 07:36:30;;;;;;;10.75;7.32;;;;;;;31.57;50.99;99596.53;5150176;27;20204;-73
2022/07/27 07:38:56;;;;;;;11.43;7.53;;;;;;;31.90;51.95;99599.22;5151346;27;20198;-72
2022/07/27 07:41:23;;;;;;;10.23;6.93;;;;;;;31.81;50.91;99601.78;5150813;27;20204;-72
2022/07/27 07:43:50;;;;;;;8.52;6.90;;;;;;;31.80;50.41;99608.13;5150686;27;20702;-73
2022/07/27 07:46:17;;;;;;;8.77;6.82;;;;;;;31.92;49.93;99613.38;5150661;27;20204;-72
2022/07/27 07:48:44;;;;;;;12.70;7.03;;;;;;;31.86;49.82;99603.13;5097059;27;20587;-72
2022/07/27 07:51:12;;;;;;;13.05;7.18;;;;;;;31.86;49.07;99565.56;5149792;27;20603;-73
2022/07/27 07:53:40;;;;;;;11.38;7.82;;;;;;;32.25;49.19;99588.31;5150432;27;20249;-73
2022/07/27 07:56:07;;;;;;;8.52;7.00;;;;;;;32.11;49.30;99595.78;5130405;27;20592;-74
2022/07/27 07:58:33;;;;;;;15.20;6.95;;;;;;;32.07;49.51;99599.72;5132508;27;20203;-74
2022/07/27 08:01:00;;;;;;;126.57;83.75;;;;;;;32.28;48.89;99590.78;5148742;27;20199;-73
2022/07/27 08:03:27;;;;;;;12.57;8.50;;;;;;;32.34;47.79;99586.72;5094021;27;20199;-75
2022/07/27 08:05:54;;;;;;;15.02;7.15;;;;;;;32.32;48.07;99578.78;5150347;27;20249;-75
2022/07/27 08:08:21;;;;;;;13.30;7.07;;;;;;;32.29;48.44;99589.78;5096130;27;20195;-74
2022/07/27 08:10:49;;;;;;;10.38;7.20;;;;;;;32.38;48.07;99591.72;5150035;27;20195;-74
2022/07/27 08:13:16;;;;;;;11.27;6.65;;;;;;;32.32;48.54;99599.41;5150484;27;20238;-74
2022/07/27 08:15:43;;;;;;;10.50;7.07;;;;;;;32.15;49.48;99597.25;5145680;27;20587;-72
2022/07/27 08:18:10;;;;;;;7.63;6.65;;;;;;;32.32;49.04;99599.41;5149714;27;20718;-73
2022/07/27 08:20:36;;;;;;;10.80;7.03;;;;;;;32.52;48.75;99590.56;5149610;27;20210;-73
2022/07/27 08:23:04;;;;;;;15.82;7.03;;;;;;;32.54;48.01;99568.94;5148873;27;20203;-73
2022/07/27 08:25:31;;;;;;;12.43;6.82;;;;;;;32.63;47.98;99587.88;5146971;27;20195;-73
2022/07/27 08:27:59;;;;;;;8.65;6.80;;;;;;;32.64;47.99;99591.41;5129457;27;20698;-73
2022/07/27 08:30:26;;;;;;;8.00;6.85;;;;;;;32.79;47.73;99596.31;5093353;27;20225;-75
2022/07/27 08:32:57;;;;;;;14.23;8.15;;;;;;;32.93;47.92;99595.16;5148797;27;20947;-74
2022/07/27 08:35:23;;;;;;;9.88;6.78;;;;;;;33.27;47.31;99593.16;5149464;27;20200;-74
2022/07/27 08:37:51;;;;;;;7.53;6.78;;;;;;;33.27;45.18;99595.84;5131560;27;20204;-74
2022/07/27 08:40:19;;;;;;;7.45;6.53;;;;;;;33.00;45.33;99593.63;5129357;27;20204;-73
2022/07/27 08:42:46;;;;;;;7.20;6.35;;;;;;;32.80;45.83;99595.34;5129216;27;20207;-73
2022/07/27 08:45:17;;;;;;;15.43;6.68;;;;;;;32.69;45.97;99565.84;5129518;27;20683;-75
2022/07/27 08:47:45;;;;;;;8.38;6.82;;;;;;;33.20;46.33;99591.97;5092478;27;20223;-74
2022/07/27 08:50:23;;;;;;;21.27;6.70;;;;;;;33.18;45.14;99589.41;5129662;27;20220;-73
2022/07/27 08:53:02;;;;;;;10.30;7.13;;;;;;;33.28;45.57;99592.19;5128913;27;20250;-73
2022/07/27 08:55:30;;;;;;;15.40;7.05;;;;;;;33.41;44.49;99598.19;5136674;27;20192;-73
2022/07/27 08:57:57;;;;;;;13.65;7.30;;;;;;;33.36;44.56;99597.72;5146496;27;20207;-73
2022/07/27 09:00:26;;;;;;;12.48;7.35;;;;;;;33.55;44.09;99596.97;5149232;27;20669;-73
2022/07/27 09:02:53;;;;;;;10.45;6.97;;;;;;;33.57;43.97;99581.56;5148080;27;20196;-73
2022/07/27 09:05:21;;;;;;;10.85;6.88;;;;;;;33.60;44.07;99589.38;5142749;27;20264;-73
2022/07/27 09:07:48;;;;;;;8.38;7.30;;;;;;;33.56;43.96;99594.16;5102732;27;20209;-73
2022/07/27 09:10:30;;;;;;;9.18;7.03;;;;;;;33.60;44.42;99584.84;5139405;27;20227;-74
2022/07/27 09:12:57;;;;;;;12.98;6.80;;;;;;;33.58;44.92;99592.19;5144970;27;20309;-73
2022/07/27 09:15:26;;;;;;;10.00;6.93;;;;;;;33.77;44.06;99586.91;5144460;27;20248;-73
2022/07/27 09:17:53;;;;;;;15.40;7.07;;;;;;;33.50;42.97;99583.91;5102667;27;20203;-73
2022/07/27 09:20:21;;;;;;;12.98;6.93;;;;;;;33.76;43.39;99581.66;5144533;27;20210;-72
2022/07/27 09:22:51;;;;;;;10.43;6.97;;;;;;;33.81;42.68;99571.34;5136524;27;20214;-72
2022/07/27 09:25:19;;;;;;;9.02;7.03;;;;;;;34.12;41.69;99585.59;5146101;27;20246;-73
2022/07/27 09:27:48;;;;;;;15.88;6.50;;;;;;;34.19;41.82;99586.78;5137503;27;20242;-73
2022/07/27 09:30:17;;;;;;;8.70;6.57;;;;;;;34.32;42.07;99580.13;5094009;27;20200;-72
2022/07/27 09:33:04;;;;;;;6.93;6.28;;;;;;;34.66;42.13;99591.38;5146432;27;20633;-70
2022/07/27 09:35:33;;;;;;;7.65;6.47;;;;;;;34.67;41.48;99576.09;5146339;27;20218;-75
2022/07/27 09:38:18;;;;;;;6.38;5.70;;;;;;;34.84;40.65;99594.22;5144726;27;20207;-73
2022/07/27 09:40:47;;;;;;;7.05;6.20;;;;;;;34.72;40.93;99584.56;5145210;27;20214;-73
2022/07/27 09:43:14;;;;;;;8.10;6.05;;;;;;;34.80;40.88;99582.00;5147519;27;20204;-73
2022/07/27 09:45:43;;;;;;;8.25;6.35;;;;;;;34.75;41.02;99584.28;5148041;27;20235;-73
2022/07/27 09:48:14;;;;;;;6.95;6.25;;;;;;;35.02;40.75;99580.84;5147443;27;20231;-72
2022/07/27 09:50:43;;;;;;;15.48;6.60;;;;;;;34.93;40.71;99574.47;5147173;27;20207;-73
2022/07/27 09:53:21;;;;;;;9.23;6.00;;;;;;;35.32;40.25;99567.19;5147409;27;20612;-72
2022/07/27 09:56:01;;;;;;;7.70;5.90;;;;;;;35.34;39.34;99576.00;5148860;27;20205;-76
2022/07/27 09:58:46;;;;;;;6.82;6.22;;;;;;;35.12;39.55;99569.09;5149907;27;20195;-75
2022/07/27 10:01:16;;;;;;;10.70;5.90;;;;;;;35.09;39.96;99566.66;5134471;27;20196;-74
2022/07/27 10:03:45;;;;;;;7.38;6.65;;;;;;;34.95;39.93;99572.50;5142515;27;20191;-73
2022/07/27 10:06:12;;;;;;;13.00;6.30;;;;;;;35.06;40.13;99556.19;5148440;27;20188;-75
2022/07/27 10:08:41;;;;;;;9.65;6.60;;;;;;;35.04;39.44;99557.28;5148141;27;20663;-75
2022/07/27 10:11:08;;;;;;;6.28;5.68;;;;;;;35.18;39.48;99564.94;5147894;27;20195;-76
2022/07/27 10:13:36;;;;;;;7.90;6.32;;;;;;;35.06;39.99;99560.72;5145499;27;20232;-75
2022/07/27 10:16:04;;;;;;;12.68;7.15;;;;;;;35.37;39.60;99564.91;5146910;27;20213;-75
2022/07/27 10:18:48;;;;;;;12.32;6.50;;;;;;;35.30;39.00;99563.78;5148814;27;20199;-74
2022/07/27 10:21:16;;;;;;;12.68;6.07;;;;;;;35.29;39.03;99541.38;5148392;27;20206;-74
2022/07/27 10:23:55;;;;;;;12.82;6.22;;;;;;;35.42;39.03;99541.06;5147644;27;20214;-74
2022/07/27 10:26:29;;;;;;;7.03;5.90;;;;;;;35.72;38.39;99558.81;5148129;27;20289;-75
2022/07/27 10:28:58;;;;;;;8.88;6.05;;;;;;;35.53;37.61;99538.13;5148010;27;20211;-72
2022/07/27 10:31:27;;;;;;;7.28;5.88;;;;;;;35.75;36.30;99553.97;5147444;27;20677;-75
2022/07/27 10:33:57;;;;;;;9.82;5.70;;;;;;;35.70;36.31;99548.19;5147167;27;20227;-73
2022/07/27 10:36:44;;;;;;;6.05;5.53;;;;;;;35.79;37.11;99547.28;5143014;27;20580;-73
2022/07/27 10:39:11;;;;;;;7.90;6.43;;;;;;;35.94;36.48;99549.47;5146447;27;20195;-75
2022/07/27 10:41:39;;;;;;;7.93;6.00;;;;;;;35.84;37.16;99552.22;5147821;27;20200;-74
2022/07/27 10:44:28;;;;;;;10.27;5.70;;;;;;;36.01;36.96;99555.97;5151240;27;20973;-73
2022/07/27 10:46:57;;;;;;;6.68;5.95;;;;;;;35.57;36.93;99533.28;5131609;27;20923;-74
2022/07/27 10:49:27;;;;;;;6.70;5.95;;;;;;;35.69;36.66;99532.16;5149038;27;20196;-75
2022/07/27 10:51:55;;;;;;;8.65;6.32;;;;;;;35.99;36.76;99541.78;5131228;27;20200;-73
2022/07/27 10:54:25;;;;;;;6.60;5.95;;;;;;;36.05;36.41;99539.31;5140473;27;20222;-73
2022/07/27 10:56:54;;;;;;;17.45;10.57;;;;;;;35.97;35.45;99546.47;5151896;27;20199;-74
2022/07/27 10:59:49;;;;;;;7.43;6.53;;;;;;;36.20;34.89;99553.19;5150529;27;20757;-73
2022/07/27 11:02:18;;;;;;;10.68;6.63;;;;;;;36.12;34.40;99526.94;5105435;27;20192;-76
2022/07/27 11:04:48;;;;;;;9.25;6.38;;;;;;;36.40;33.59;99541.22;5151991;27;20248;-75
2022/07/27 11:07:17;;;;;;;8.00;6.72;;;;;;;36.37;34.30;99544.22;5151376;27;20747;-74
2022/07/27 11:09:45;;;;;;;6.53;5.65;;;;;;;36.55;34.27;99547.81;5150727;27;20223;-75
2022/07/27 11:12:13;;;;;;;7.13;6.20;;;;;;;36.64;34.35;99541.47;5150827;27;20211;-74
2022/07/27 11:14:48;;;;;;;8.27;6.40;;;;;;;36.61;33.96;99539.06;5114314;27;20219;-75
2022/07/27 11:17:15;;;;;;;7.40;6.28;;;;;;;36.57;34.47;99543.09;5147791;27;20199;-75
2022/07/27 11:19:42;;;;;;;8.50;6.43;;;;;;;36.55;33.71;99537.00;5149232;27;20210;-73
2022/07/27 11:22:11;;;;;;;6.82;6.22;;;;;;;36.47;34.03;99545.00;5147995;27;20199;-73
2022/07/27 11:24:38;;;;;;;8.25;6.28;;;;;;;36.65;33.99;99532.34;5142289;27;20605;-74
2022/07/27 11:27:05;;;;;;;6.95;6.15;;;;;;;36.87;33.43;99530.16;5142371;27;20203;-74
2022/07/27 11:29:36;;;;;;;7.38;6.57;;;;;;;36.69;34.78;99512.13;5142334;27;20199;-74
2022/07/27 11:32:04;;;;;;;6.05;5.63;;;;;;;36.75;33.99;99527.69;5085439;27;20188;-76
2022/07/27 11:34:34;;;;;;;7.13;6.43;;;;;;;36.70;34.28;99529.19;5137946;27;20973;-73
2022/07/27 11:37:01;;;;;;;9.82;6.80;;;;;;;36.84;33.29;99525.06;5141440;27;20214;-73
2022/07/27 11:39:32;;;;;;;12.25;6.72;;;;;;;37.10;33.64;99528.66;5141697;27;20191;-73
2022/07/27 11:42:02;;;;;;;9.75;6.80;;;;;;;37.23;34.12;99520.97;5145018;27;20210;-74
2022/07/27 11:44:30;;;;;;;8.15;6.13;;;;;;;37.18;34.27;99520.59;5147944;27;20207;-73
2022/07/27 11:46:57;;;;;;;18.48;6.43;;;;;;;36.55;34.47;99514.50;5150722;27;20196;-73
2022/07/27 11:49:27;;;;;;;7.22;6.18;;;;;;;37.00;32.80;99525.16;5149074;27;20203;-74
2022/07/27 11:51:56;;;;;;;12.85;6.25;;;;;;;37.22;33.13;99517.41;5149918;27;20196;-75